createdAt,value
2023-05-05T00:00:23.350Z,17.33
2023-05-05T00:03:27.124Z,16.73
2023-05-05T00:06:29.498Z,16.98
2023-05-05T00:09:31.564Z,17.75
2023-05-05T00:12:33.821Z,16.05
2023-05-05T00:15:36.398Z,14.32
2023-05-05T00:18:38.839Z,15.65
2023-05-05T00:21:40.924Z,13.57
2023-05-05T00:24:42.990Z,16.20
2023-05-05T00:27:45.196Z,17.63
2023-05-05T00:30:47.354Z,15.73
2023-05-05T00:33:49.607Z,18.90
2023-05-05T00:36:51.642Z,16.52
2023-05-05T00:39:53.847Z,14.73
2023-05-05T00:42:56.052Z,14.95
2023-05-05T00:46:26.784Z,13.38
2023-05-05T00:49:29.430Z,16.23
2023-05-05T00:52:31.797Z,16.73
2023-05-05T00:55:35.068Z,16.55
2023-05-05T00:58:37.188Z,16.00
2023-05-05T01:01:39.626Z,17.70
2023-05-05T01:04:41.953Z,14.07
2023-05-05T01:07:43.966Z,14.35
2023-05-05T01:10:53.208Z,15.02
2023-05-05T01:14:16.385Z,15.95
2023-05-05T01:17:21.992Z,15.02
2023-05-05T01:20:46.113Z,14.00
2023-05-05T01:24:15.857Z,15.68
2023-05-05T01:27:48.806Z,16.80
2023-05-05T01:31:03.264Z,14.48
2023-05-05T01:34:09.876Z,20.80
2023-05-05T01:37:17.458Z,20.13
2023-05-05T01:40:25.041Z,17.48
2023-05-05T01:43:29.673Z,15.68
2023-05-05T01:46:35.200Z,20.45
2023-05-05T01:49:38.304Z,16.35
2023-05-05T01:52:42.568Z,15.70
2023-05-05T01:55:46.909Z,15.07
2023-05-05T01:58:49.946Z,14.10
2023-05-05T02:01:52.767Z,13.93
2023-05-05T02:04:56.450Z,15.98
2023-05-05T02:08:00.141Z,12.63
2023-05-05T02:11:02.838Z,14.75
2023-05-05T02:14:07.972Z,14.55
2023-05-05T02:17:11.621Z,13.45
2023-05-05T02:20:16.101Z,16.38
2023-05-05T02:23:18.248Z,14.30
2023-05-05T02:26:23.434Z,16.08
2023-05-05T02:29:39.346Z,16.83
2023-05-05T02:32:48.448Z,15.68
2023-05-05T02:35:53.693Z,14.40
2023-05-05T02:39:01.232Z,15.30
2023-05-05T02:42:05.446Z,13.27
2023-05-05T02:45:22.225Z,15.35
2023-05-05T02:48:24.436Z,17.73
2023-05-05T02:51:27.713Z,16.88
2023-05-05T02:54:32.714Z,15.27
2023-05-05T02:57:53.330Z,17.38
2023-05-05T03:01:26.823Z,15.50
2023-05-05T03:05:06.838Z,13.88
2023-05-05T03:08:17.642Z,20.08
2023-05-05T03:11:59.623Z,19.15
2023-05-05T03:15:02.718Z,15.30
2023-05-05T03:18:07.070Z,16.23
2023-05-05T03:21:09.968Z,15.90
2023-05-05T03:24:19.984Z,19.25
2023-05-05T03:27:22.220Z,18.65
2023-05-05T03:30:24.409Z,18.65
2023-05-05T03:33:27.225Z,19.48
2023-05-05T03:36:29.985Z,18.27
2023-05-05T03:39:32.035Z,21.15
2023-05-05T03:42:34.093Z,20.40
2023-05-05T03:45:55.557Z,19.92
2023-05-05T03:48:57.564Z,18.58
2023-05-05T03:51:59.590Z,20.83
2023-05-05T03:55:01.847Z,18.67
2023-05-05T03:58:03.902Z,20.77
2023-05-05T04:01:06.027Z,20.50
2023-05-05T04:04:09.564Z,20.60
2023-05-05T04:07:11.966Z,23.80
2023-05-05T04:10:14.003Z,25.17
2023-05-05T04:13:16.242Z,24.67
2023-05-05T04:16:18.427Z,22.23
2023-05-05T04:19:20.535Z,63.88
2023-05-05T04:22:23.043Z,22.55
2023-05-05T04:25:25.232Z,26.60
2023-05-05T04:28:27.313Z,22.13
2023-05-05T04:31:29.490Z,25.48
2023-05-05T04:34:31.644Z,23.55
2023-05-05T04:37:33.617Z,25.58
2023-05-05T04:40:40.321Z,32.50
2023-05-05T04:43:42.767Z,31.88
2023-05-05T04:46:44.895Z,39.25
2023-05-05T04:49:47.152Z,30.20
2023-05-05T04:52:51.341Z,29.25
2023-05-05T04:55:54.572Z,32.28
2023-05-05T04:58:56.611Z,32.38
2023-05-05T05:01:58.790Z,21.13
2023-05-05T05:05:00.843Z,14.75
2023-05-05T05:08:02.964Z,13.27
2023-05-05T05:11:05.181Z,13.10
2023-05-05T05:14:07.325Z,12.35
2023-05-05T05:17:09.382Z,12.52
2023-05-05T05:20:11.881Z,14.57
2023-05-05T05:23:14.012Z,16.77
2023-05-05T05:26:16.715Z,17.23
2023-05-05T05:29:20.421Z,18.15
2023-05-05T05:32:22.791Z,19.55
2023-05-05T05:35:24.947Z,17.85
2023-05-05T05:38:27.526Z,17.63
2023-05-05T05:41:29.551Z,18.08
2023-05-05T05:44:32.820Z,14.98
2023-05-05T05:47:34.964Z,12.32
2023-05-05T05:50:37.171Z,12.77
2023-05-05T05:53:39.778Z,11.75
2023-05-05T05:56:41.813Z,12.27
2023-05-05T05:59:43.836Z,10.57
2023-05-05T06:02:46.074Z,9.82
2023-05-05T06:05:48.286Z,10.63
2023-05-05T06:08:51.031Z,11.27
2023-05-05T06:11:53.263Z,9.23
2023-05-05T06:14:55.930Z,10.95
2023-05-05T06:17:58.200Z,10.32
2023-05-05T06:21:00.395Z,10.18
2023-05-05T06:24:02.502Z,9.45
2023-05-05T06:27:04.534Z,8.20
2023-05-05T06:30:09.726Z,10.35
2023-05-05T06:33:12.022Z,9.18
2023-05-05T06:36:14.078Z,9.15
2023-05-05T06:39:16.329Z,10.68
2023-05-05T06:42:18.545Z,9.45
2023-05-05T06:45:20.592Z,9.77
2023-05-05T06:48:22.713Z,10.52
2023-05-05T06:51:25.083Z,9.10
2023-05-05T06:54:27.326Z,9.98
2023-05-05T06:57:29.471Z,10.77
2023-05-05T07:00:31.782Z,9.70
2023-05-05T07:03:34.110Z,13.68
2023-05-05T07:06:36.306Z,10.07
2023-05-05T07:09:38.402Z,10.55
2023-05-05T07:12:40.440Z,10.40
2023-05-05T07:15:46.715Z,10.52
2023-05-05T07:18:48.998Z,12.50
2023-05-05T07:21:52.135Z,11.63
2023-05-05T07:24:54.453Z,11.60
2023-05-05T07:27:56.933Z,13.73
2023-05-05T07:30:59.342Z,14.80
2023-05-05T07:34:01.676Z,16.80
2023-05-05T07:37:05.257Z,15.63
2023-05-05T07:40:08.277Z,13.20
2023-05-05T07:43:10.697Z,14.25
2023-05-05T07:46:13.916Z,11.82
2023-05-05T07:49:16.308Z,12.48
2023-05-05T07:52:19.486Z,9.88
2023-05-05T07:55:23.596Z,6.22
2023-05-05T07:58:25.779Z,7.18
2023-05-05T08:01:27.940Z,7.38
2023-05-05T08:04:30.356Z,8.75
2023-05-05T08:07:32.601Z,6.70
2023-05-05T08:10:34.928Z,7.78
2023-05-05T08:13:38.442Z,6.80
2023-05-05T08:16:40.543Z,7.97
2023-05-05T08:19:42.708Z,7.95
2023-05-05T08:22:45.551Z,5.97
2023-05-05T08:25:47.660Z,5.53
2023-05-05T08:28:49.813Z,6.00
2023-05-05T08:31:52.199Z,5.07
2023-05-05T08:34:54.319Z,5.05
2023-05-05T08:37:58.244Z,7.00
2023-05-05T08:41:01.390Z,6.78
2023-05-05T08:44:03.503Z,5.05
2023-05-05T08:47:06.347Z,4.82
2023-05-05T08:50:11.043Z,5.43
2023-05-05T08:53:17.667Z,8.07
2023-05-05T08:56:22.028Z,5.25
2023-05-05T08:59:25.300Z,6.50
2023-05-05T09:02:29.971Z,6.25
2023-05-05T09:05:32.115Z,7.68
2023-05-05T09:08:34.238Z,8.48
2023-05-05T09:11:37.618Z,5.82
2023-05-05T09:18:02.562Z,10.50
2023-05-05T09:21:25.162Z,7.30
2023-05-05T09:24:27.366Z,9.80
2023-05-05T09:27:29.737Z,8.52
2023-05-05T09:30:31.966Z,11.57
2023-05-05T09:33:34.117Z,6.53
2023-05-05T09:36:50.258Z,5.88
2023-05-05T09:39:56.161Z,6.63
2023-05-05T09:43:02.942Z,6.05
2023-05-05T09:46:08.424Z,7.35
2023-05-05T09:49:25.324Z,6.57
2023-05-05T09:52:27.870Z,5.40
2023-05-05T09:55:33.117Z,8.10
2023-05-05T09:58:35.680Z,6.60
2023-05-05T10:01:38.803Z,7.95
2023-05-05T10:04:41.194Z,5.65
2023-05-05T10:07:45.128Z,6.65
2023-05-05T10:11:00.584Z,8.20
2023-05-05T10:14:06.563Z,6.40
2023-05-05T10:17:10.930Z,6.47
2023-05-05T10:20:14.386Z,7.97
2023-05-05T10:23:20.411Z,7.93
2023-05-05T10:26:23.409Z,8.73
2023-05-05T10:29:30.224Z,11.52
2023-05-05T10:35:49.913Z,6.95
2023-05-05T10:38:59.269Z,6.05
2023-05-05T10:42:15.121Z,7.55
2023-05-05T10:45:17.322Z,7.93
2023-05-05T10:48:43.424Z,6.53
2023-05-05T10:52:06.839Z,7.20
2023-05-05T10:55:18.188Z,5.70
2023-05-05T10:58:38.699Z,5.43
2023-05-05T11:01:50.830Z,6.50
2023-05-05T11:05:09.953Z,5.20
2023-05-05T11:08:31.538Z,7.30
2023-05-05T11:12:02.720Z,6.15
2023-05-05T11:15:26.863Z,11.10
2023-05-05T11:18:39.860Z,8.13
2023-05-05T11:22:01.230Z,7.40
2023-05-05T11:25:34.914Z,7.78
2023-05-05T11:28:56.446Z,6.35
2023-05-05T11:32:12.652Z,7.75
2023-05-05T11:35:15.617Z,8.40
2023-05-05T11:38:20.040Z,6.40
2023-05-05T11:41:33.680Z,7.18
2023-05-05T11:44:35.950Z,6.13
2023-05-05T11:47:38.243Z,5.47
2023-05-05T11:50:40.998Z,6.22
2023-05-05T11:53:48.431Z,5.13
2023-05-05T11:56:54.390Z,5.85
2023-05-05T12:00:01.300Z,5.65
2023-05-05T12:03:04.986Z,5.15
2023-05-05T12:06:08.477Z,6.32
2023-05-05T12:09:21.430Z,6.00
2023-05-05T12:12:38.102Z,4.80
2023-05-05T12:15:40.420Z,4.38
2023-05-05T12:18:42.879Z,4.63
2023-05-05T12:21:46.028Z,5.88
2023-05-05T12:25:05.352Z,5.20
2023-05-05T12:28:08.613Z,6.53
2023-05-05T12:31:11.740Z,6.43
2023-05-05T12:34:14.047Z,5.05
2023-05-05T12:37:19.176Z,5.20
2023-05-05T12:40:43.721Z,5.50
2023-05-05T12:43:47.533Z,5.78
2023-05-05T12:46:49.722Z,7.95
2023-05-05T12:49:52.647Z,6.55
2023-05-05T12:52:54.801Z,5.45
2023-05-05T12:55:56.817Z,6.85
2023-05-05T12:58:59.804Z,5.15
2023-05-05T13:02:06.243Z,4.00
2023-05-05T13:05:08.978Z,5.03
2023-05-05T13:08:11.387Z,5.57
2023-05-05T13:11:13.566Z,6.10
2023-05-05T13:14:15.814Z,5.90
2023-05-05T13:17:17.840Z,4.70
2023-05-05T13:20:20.062Z,4.10
2023-05-05T13:23:23.380Z,10.25
2023-05-05T13:26:27.077Z,4.75
2023-05-05T13:29:31.717Z,7.28
2023-05-05T13:32:33.922Z,7.60
2023-05-05T13:35:36.053Z,5.18
2023-05-05T13:38:38.595Z,14.13
2023-05-05T13:41:40.757Z,5.57
2023-05-05T13:44:42.908Z,5.57
2023-05-05T13:47:45.253Z,10.60
2023-05-05T13:50:47.392Z,4.63
2023-05-05T13:53:49.735Z,5.40
2023-05-05T13:56:51.884Z,6.57
2023-05-05T13:59:53.939Z,4.13
2023-05-05T14:02:55.981Z,5.68
2023-05-05T14:05:58.054Z,5.75
2023-05-05T14:09:00.210Z,4.45
2023-05-05T14:12:03.587Z,5.13
2023-05-05T14:15:06.805Z,7.95
2023-05-05T14:18:09.698Z,7.10
2023-05-05T14:21:12.236Z,6.03
2023-05-05T14:24:14.618Z,3.70
2023-05-05T14:27:16.649Z,5.30
2023-05-05T14:30:18.756Z,6.18
2023-05-05T14:33:22.129Z,3.70
2023-05-05T14:36:24.187Z,4.72
2023-05-05T14:39:26.333Z,5.28
2023-05-05T14:42:28.415Z,3.47
2023-05-05T14:45:31.286Z,4.88
2023-05-05T14:48:34.307Z,6.20
2023-05-05T14:51:36.444Z,4.72
2023-05-05T14:54:38.826Z,3.42
2023-05-05T14:57:41.176Z,3.80
2023-05-05T15:00:43.368Z,5.60
2023-05-05T15:03:45.828Z,4.35
2023-05-05T15:06:48.000Z,6.82
2023-05-05T15:09:50.286Z,4.00
2023-05-05T15:12:52.471Z,3.35
2023-05-05T15:15:54.635Z,4.25
2023-05-05T15:18:56.858Z,4.13
2023-05-05T15:21:58.992Z,5.65
2023-05-05T15:25:01.409Z,3.88
2023-05-05T15:28:03.673Z,4.97
2023-05-05T15:31:06.418Z,4.30
2023-05-05T15:34:08.982Z,5.28
2023-05-05T15:37:11.112Z,3.50
2023-05-05T15:40:13.636Z,4.43
2023-05-05T15:43:15.766Z,5.60
2023-05-05T15:46:17.866Z,5.85
2023-05-05T15:49:20.041Z,5.38
2023-05-05T15:52:22.318Z,4.55
2023-05-05T15:55:25.684Z,4.80
2023-05-05T15:58:27.819Z,6.20
2023-05-05T16:01:30.084Z,5.63
2023-05-05T16:04:32.163Z,4.25
2023-05-05T16:07:34.247Z,4.30
2023-05-05T16:10:37.470Z,4.28
2023-05-05T16:13:39.806Z,5.85
2023-05-05T16:16:42.012Z,5.30
2023-05-05T16:19:44.373Z,4.03
2023-05-05T16:22:46.833Z,6.30
2023-05-05T16:25:48.862Z,5.97
2023-05-05T16:28:51.427Z,5.38
2023-05-05T16:31:53.869Z,4.00
2023-05-05T16:34:55.921Z,4.07
2023-05-05T16:37:58.187Z,4.00
2023-05-05T16:41:00.364Z,5.03
2023-05-05T16:44:03.006Z,3.88
2023-05-05T16:47:05.062Z,4.25
2023-05-05T16:50:07.908Z,7.07
2023-05-05T16:53:10.577Z,7.75
2023-05-05T16:56:15.595Z,4.32
2023-05-05T16:59:19.260Z,4.20
2023-05-05T17:02:21.654Z,5.93
2023-05-05T17:05:23.810Z,5.72
2023-05-05T17:08:35.487Z,6.32
2023-05-05T17:11:37.556Z,5.70
2023-05-05T17:14:40.054Z,7.18
2023-05-05T17:17:43.155Z,8.05
2023-05-05T17:20:45.365Z,4.85
2023-05-05T17:23:47.465Z,5.47
2023-05-05T17:26:50.162Z,6.43
2023-05-05T17:29:52.251Z,6.85
2023-05-05T17:32:54.256Z,8.05
2023-05-05T17:35:56.376Z,5.75
2023-05-05T17:38:58.482Z,9.77
2023-05-05T17:42:01.352Z,5.32
2023-05-05T17:45:04.049Z,9.45
2023-05-05T17:48:06.504Z,6.40
2023-05-05T17:51:08.759Z,8.73
2023-05-05T17:54:10.954Z,8.45
2023-05-05T17:57:13.382Z,7.55
2023-05-05T18:00:15.953Z,6.90
2023-05-05T18:03:18.096Z,9.02
2023-05-05T18:06:20.460Z,9.00
2023-05-05T18:09:23.468Z,7.20
2023-05-05T18:12:26.032Z,8.38
2023-05-05T18:15:30.062Z,8.00
2023-05-05T18:18:32.321Z,7.07
2023-05-05T18:21:34.480Z,9.57
2023-05-05T18:24:36.507Z,12.13
2023-05-05T18:27:40.144Z,14.70
2023-05-05T18:30:42.403Z,9.07
2023-05-05T18:33:46.780Z,8.93
2023-05-05T18:36:51.500Z,7.25
2023-05-05T18:39:53.637Z,8.68
2023-05-05T18:42:55.904Z,8.60
2023-05-05T18:45:58.096Z,12.18
2023-05-05T18:49:00.697Z,8.55
2023-05-05T18:52:03.608Z,9.00
2023-05-05T18:55:05.937Z,8.38
2023-05-05T18:58:08.068Z,8.45
2023-05-05T19:01:10.220Z,8.43
2023-05-05T19:04:26.743Z,8.70
2023-05-05T19:07:35.814Z,11.32
2023-05-05T19:10:38.280Z,13.27
2023-05-05T19:13:41.062Z,12.98
2023-05-05T19:16:43.189Z,10.93
2023-05-05T19:19:45.414Z,9.07
2023-05-05T19:22:48.046Z,9.48
2023-05-05T19:25:53.624Z,10.35
2023-05-05T19:28:55.770Z,8.95
2023-05-05T19:31:58.259Z,10.43
2023-05-05T19:35:01.524Z,9.63
2023-05-05T19:38:03.550Z,8.40
2023-05-05T19:41:05.612Z,11.10
2023-05-05T19:44:07.736Z,12.45
2023-05-05T19:47:10.941Z,10.68
2023-05-05T19:50:15.400Z,10.43
2023-05-05T19:53:17.623Z,10.65
2023-05-05T19:56:19.831Z,11.00
2023-05-05T19:59:22.201Z,11.20
2023-05-05T20:02:27.199Z,11.30
2023-05-05T20:05:29.553Z,12.18
2023-05-05T20:08:31.838Z,10.35
2023-05-05T20:11:34.145Z,12.70
2023-05-05T20:14:36.640Z,13.40
2023-05-05T20:17:38.852Z,15.27
2023-05-05T20:20:41.023Z,14.43
2023-05-05T20:23:45.266Z,12.88
2023-05-05T20:26:47.340Z,11.02
2023-05-05T20:29:49.372Z,11.98
2023-05-05T20:32:52.079Z,12.10
2023-05-05T20:35:54.197Z,11.65
2023-05-05T20:38:56.363Z,16.45
2023-05-05T20:41:58.529Z,12.95
2023-05-05T20:45:01.960Z,15.98
2023-05-05T20:48:05.553Z,16.98
2023-05-05T20:51:07.737Z,13.00
2023-05-05T20:54:10.289Z,12.27
2023-05-05T20:57:12.462Z,12.75
2023-05-05T21:00:15.099Z,16.52
2023-05-05T21:03:17.335Z,13.05
2023-05-05T21:06:19.664Z,12.52
2023-05-05T21:09:23.851Z,15.43
2023-05-05T21:12:26.243Z,13.00
2023-05-05T21:15:28.532Z,13.52
2023-05-05T21:18:30.855Z,13.40
2023-05-05T21:21:33.141Z,14.45
2023-05-05T21:24:35.327Z,15.88
2023-05-05T21:27:37.422Z,14.93
2023-05-05T21:30:39.648Z,15.48
2023-05-05T21:33:41.941Z,14.88
2023-05-05T21:36:44.054Z,13.85
2023-05-05T21:39:46.238Z,14.65
2023-05-05T21:42:48.377Z,14.57
2023-05-05T21:46:02.299Z,15.55
2023-05-05T21:49:15.731Z,15.93
2023-05-05T21:52:17.965Z,15.43
2023-05-05T21:55:20.602Z,16.33
2023-05-05T21:58:25.007Z,14.75
2023-05-05T22:01:27.229Z,13.23
2023-05-05T22:04:29.361Z,16.10
2023-05-05T22:07:33.044Z,17.55
2023-05-05T22:10:35.382Z,18.67
2023-05-05T22:13:39.078Z,17.55
2023-05-05T22:16:41.229Z,12.93
2023-05-05T22:19:43.614Z,17.10
2023-05-05T22:22:46.158Z,15.90
2023-05-05T22:25:48.354Z,15.30
2023-05-05T22:28:50.625Z,15.52
2023-05-05T22:31:53.407Z,21.60
2023-05-05T22:34:55.520Z,18.02
2023-05-05T22:37:57.958Z,16.42
2023-05-05T22:41:00.036Z,14.40
2023-05-05T22:44:02.163Z,16.90
2023-05-05T22:47:04.313Z,15.40
2023-05-05T22:50:07.859Z,16.58
2023-05-05T22:53:10.037Z,17.90
2023-05-05T22:56:12.092Z,16.67
2023-05-05T22:59:14.255Z,19.42
2023-05-05T23:02:16.604Z,21.02
2023-05-05T23:05:18.726Z,18.08
2023-05-05T23:08:21.052Z,17.77
2023-05-05T23:11:23.074Z,16.30
2023-05-05T23:14:25.463Z,17.38
2023-05-05T23:17:27.636Z,18.05
2023-05-05T23:20:29.823Z,19.35
2023-05-05T23:23:31.902Z,18.40
2023-05-05T23:26:34.039Z,19.58
2023-05-05T23:29:36.101Z,18.33
2023-05-05T23:32:38.314Z,16.50
2023-05-05T23:35:43.482Z,20.48
2023-05-05T23:38:46.164Z,18.30
2023-05-05T23:41:48.176Z,17.60
2023-05-05T23:44:50.283Z,17.60
2023-05-05T23:47:52.561Z,17.38
2023-05-05T23:50:55.005Z,17.55
2023-05-05T23:53:57.584Z,18.23
2023-05-05T23:57:00.365Z,18.85
